createdAt,value
2023-03-12T00:01:30.916Z,14.48
2023-03-12T00:03:58.083Z,12.90
2023-03-12T00:06:25.272Z,10.18
2023-03-12T00:08:53.920Z,13.77
2023-03-12T00:11:25.492Z,16.83
2023-03-12T00:13:54.522Z,15.43
2023-03-12T00:16:24.562Z,12.35
2023-03-12T00:18:53.325Z,10.52
2023-03-12T00:21:21.992Z,10.88
2023-03-12T00:23:50.084Z,13.05
2023-03-12T00:26:18.352Z,26.38
2023-03-12T00:28:45.404Z,11.23
2023-03-12T00:31:20.319Z,11.48
2023-03-12T00:33:49.984Z,16.45
2023-03-12T00:36:18.739Z,14.65
2023-03-12T00:38:45.935Z,13.13
2023-03-12T00:41:13.076Z,14.80
2023-03-12T00:43:40.027Z,13.57
2023-03-12T00:46:07.307Z,12.00
2023-03-12T00:48:34.229Z,10.75
2023-03-12T00:51:01.225Z,12.00
2023-03-12T00:53:28.160Z,10.70
2023-03-12T00:55:55.066Z,12.93
2023-03-12T00:58:22.014Z,10.85
2023-03-12T01:00:49.084Z,13.40
2023-03-12T01:03:16.300Z,11.35
2023-03-12T01:05:43.329Z,11.10
2023-03-12T01:08:11.325Z,11.02
2023-03-12T01:10:42.576Z,15.95
2023-03-12T01:13:09.568Z,12.60
2023-03-12T01:15:36.720Z,10.93
2023-03-12T01:18:03.797Z,9.85
2023-03-12T01:20:30.732Z,8.80
2023-03-12T01:22:57.647Z,8.05
2023-03-12T01:25:24.588Z,13.02
2023-03-12T01:27:52.035Z,10.65
2023-03-12T01:30:19.077Z,9.80
2023-03-12T01:32:46.199Z,7.60
2023-03-12T01:35:13.377Z,10.23
2023-03-12T01:37:40.609Z,12.77
2023-03-12T01:40:07.975Z,12.43
2023-03-12T01:42:34.863Z,12.25
2023-03-12T01:45:03.503Z,9.30
2023-03-12T01:47:32.271Z,10.68
2023-03-12T01:50:03.157Z,10.68
2023-03-12T01:52:35.575Z,10.57
2023-03-12T01:55:05.736Z,6.57
2023-03-12T01:57:48.560Z,8.82
2023-03-12T02:00:20.096Z,10.13
2023-03-12T02:02:49.748Z,7.35
2023-03-12T02:05:24.093Z,7.43
2023-03-12T02:07:51.467Z,9.25
2023-03-12T02:10:18.516Z,13.98
2023-03-12T02:12:45.668Z,12.38
2023-03-12T02:15:12.818Z,8.70
2023-03-12T02:17:40.606Z,8.75
2023-03-12T02:20:17.139Z,6.57
2023-03-12T02:22:49.633Z,8.70
2023-03-12T02:25:36.027Z,8.27
2023-03-12T02:28:07.382Z,6.53
2023-03-12T02:30:36.681Z,5.72
2023-03-12T02:33:07.672Z,9.20
2023-03-12T02:35:35.225Z,7.70
2023-03-12T02:38:22.806Z,4.22
2023-03-12T02:40:51.331Z,5.30
2023-03-12T02:43:21.660Z,3.55
2023-03-12T02:45:49.405Z,4.97
2023-03-12T02:48:16.329Z,5.10
2023-03-12T02:50:44.196Z,4.93
2023-03-12T02:53:11.119Z,5.88
2023-03-12T02:55:38.135Z,5.30
2023-03-12T02:58:05.021Z,5.35
2023-03-12T03:00:32.311Z,5.82
2023-03-12T03:03:00.977Z,4.68
2023-03-12T03:05:28.008Z,6.47
2023-03-12T03:07:55.863Z,10.27
2023-03-12T03:10:22.860Z,4.10
2023-03-12T03:12:50.189Z,7.60
2023-03-12T03:15:17.657Z,6.38
2023-03-12T03:17:45.215Z,8.30
2023-03-12T03:20:12.474Z,5.05
2023-03-12T03:22:39.527Z,7.10
2023-03-12T03:25:07.772Z,6.50
2023-03-12T03:27:34.937Z,8.45
2023-03-12T03:30:02.344Z,8.00
2023-03-12T03:32:31.827Z,9.07
2023-03-12T03:34:58.932Z,5.57
2023-03-12T03:37:25.915Z,6.38
2023-03-12T03:39:52.876Z,6.32
2023-03-12T03:42:19.945Z,6.07
2023-03-12T03:44:46.868Z,7.45
2023-03-12T03:47:14.293Z,7.03
2023-03-12T03:49:41.348Z,10.07
2023-03-12T03:52:08.489Z,4.78
2023-03-12T03:54:36.558Z,6.38
2023-03-12T03:57:05.555Z,6.35
2023-03-12T03:59:32.601Z,6.38
2023-03-12T04:01:59.703Z,9.55
2023-03-12T04:04:26.642Z,8.15
2023-03-12T04:06:54.156Z,7.30
2023-03-12T04:09:22.018Z,6.53
2023-03-12T04:11:49.017Z,7.25
2023-03-12T04:14:20.773Z,10.63
2023-03-12T04:16:47.745Z,5.13
2023-03-12T04:19:14.752Z,7.32
2023-03-12T04:21:41.822Z,3.83
2023-03-12T04:24:14.769Z,8.20
2023-03-12T04:26:41.892Z,7.30
2023-03-12T04:29:08.937Z,8.35
2023-03-12T04:31:36.406Z,5.82
2023-03-12T04:34:03.581Z,6.85
2023-03-12T04:36:30.996Z,8.25
2023-03-12T04:38:59.142Z,7.18
2023-03-12T04:41:30.802Z,6.97
2023-03-12T04:44:04.415Z,5.90
2023-03-12T04:46:33.276Z,5.90
2023-03-12T04:49:02.667Z,8.07
2023-03-12T04:51:31.763Z,6.70
2023-03-12T04:53:59.581Z,7.82
2023-03-12T04:56:27.209Z,5.15
2023-03-12T04:58:54.330Z,5.95
2023-03-12T05:01:28.291Z,7.88
2023-03-12T05:03:55.579Z,12.15
2023-03-12T05:06:24.184Z,14.98
2023-03-12T05:08:51.919Z,14.40
2023-03-12T05:11:19.658Z,10.90
2023-03-12T05:13:47.062Z,17.83
2023-03-12T05:16:15.427Z,15.65
2023-03-12T05:18:43.676Z,12.70
2023-03-12T05:21:18.258Z,11.27
2023-03-12T05:23:46.652Z,8.60
2023-03-12T05:26:28.029Z,9.02
2023-03-12T05:29:03.666Z,12.40
2023-03-12T05:31:33.230Z,10.55
2023-03-12T05:34:01.675Z,10.63
2023-03-12T05:36:28.966Z,10.90
2023-03-12T05:38:56.300Z,10.63
2023-03-12T05:41:28.086Z,13.25
2023-03-12T05:43:59.324Z,14.77
2023-03-12T05:46:28.593Z,6.68
2023-03-12T05:48:55.873Z,9.25
2023-03-12T05:51:23.405Z,7.55
2023-03-12T05:53:50.570Z,9.48
2023-03-12T05:56:18.297Z,8.48
2023-03-12T05:58:48.107Z,10.38
2023-03-12T06:01:18.306Z,11.20
2023-03-12T06:03:45.873Z,10.65
2023-03-12T06:06:12.937Z,14.63
2023-03-12T06:08:41.610Z,12.40
2023-03-12T06:11:10.166Z,9.50
2023-03-12T06:13:37.189Z,10.20
2023-03-12T06:16:10.992Z,9.75
2023-03-12T06:18:38.477Z,9.15
2023-03-12T06:21:12.582Z,16.63
2023-03-12T06:23:40.943Z,11.55
2023-03-12T06:26:11.165Z,6.90
2023-03-12T06:28:38.525Z,10.23
2023-03-12T06:31:05.818Z,8.30
2023-03-12T06:33:34.200Z,6.43
2023-03-12T06:36:03.407Z,8.18
2023-03-12T06:38:30.326Z,6.82
2023-03-12T06:41:02.208Z,7.05
2023-03-12T06:43:31.147Z,7.85
2023-03-12T06:46:00.144Z,5.30
2023-03-12T06:48:28.474Z,8.45
2023-03-12T06:50:55.513Z,8.43
2023-03-12T06:53:23.217Z,5.78
2023-03-12T06:55:51.237Z,10.30
2023-03-12T06:58:18.852Z,11.68
2023-03-12T16:43:03.835Z,11.73
2023-03-12T16:45:34.001Z,25.40
2023-03-12T17:27:47.455Z,10.63
2023-03-12T17:30:14.656Z,9.77
2023-03-12T17:32:41.614Z,9.65
2023-03-12T17:35:08.894Z,10.05
2023-03-12T17:37:36.048Z,12.25
2023-03-12T17:40:09.249Z,10.43
2023-03-12T17:42:37.303Z,13.23
2023-03-12T17:45:05.750Z,12.35
2023-03-12T17:47:32.824Z,11.98
2023-03-12T17:49:59.712Z,7.47
2023-03-12T17:52:26.645Z,13.38
2023-03-12T17:54:53.664Z,21.73
2023-03-12T17:57:20.547Z,14.18
2023-03-12T17:59:47.461Z,9.63
2023-03-12T18:02:14.614Z,11.32
2023-03-12T18:04:41.601Z,9.57
2023-03-12T18:07:09.089Z,13.57
2023-03-12T18:09:36.382Z,11.63
2023-03-12T18:12:03.568Z,17.63
2023-03-12T18:14:30.500Z,8.80
2023-03-12T18:16:59.153Z,11.25
2023-03-12T18:19:27.258Z,11.73
2023-03-12T18:21:54.162Z,12.25
2023-03-12T18:24:21.053Z,13.48
2023-03-12T18:26:50.506Z,17.27
2023-03-12T18:29:17.643Z,13.88
2023-03-12T18:31:44.725Z,17.27
2023-03-12T18:34:11.750Z,14.45
2023-03-12T18:36:38.732Z,16.70
2023-03-12T18:39:06.572Z,13.30
2023-03-12T18:41:33.705Z,19.38
2023-03-12T18:44:00.804Z,12.10
2023-03-12T18:46:28.330Z,15.32
2023-03-12T18:48:55.260Z,11.32
2023-03-12T18:51:22.261Z,13.55
2023-03-12T18:53:49.268Z,16.00
2023-03-12T18:56:16.250Z,12.52
2023-03-12T18:58:43.169Z,19.95
2023-03-12T19:01:10.809Z,20.05
2023-03-12T19:03:37.809Z,16.15
2023-03-12T19:06:12.901Z,10.60
2023-03-12T19:08:40.699Z,14.05
2023-03-12T19:11:13.691Z,11.43
2023-03-12T19:13:41.529Z,22.35
2023-03-12T19:16:10.511Z,20.95
2023-03-12T19:18:38.840Z,19.35
2023-03-12T19:21:07.802Z,15.65
2023-03-12T19:23:35.653Z,12.75
2023-03-12T19:26:03.152Z,14.52
2023-03-12T19:28:31.194Z,10.23
2023-03-12T19:31:02.466Z,12.30
2023-03-12T19:33:30.105Z,16.85
2023-03-12T19:35:57.556Z,15.52
2023-03-12T19:38:24.716Z,14.18
2023-03-12T19:40:56.361Z,12.60
2023-03-12T19:43:23.776Z,16.30
2023-03-12T19:45:52.307Z,11.02
2023-03-12T19:48:19.255Z,13.98
2023-03-12T19:50:46.242Z,13.15
2023-03-12T19:53:13.475Z,12.38
2023-03-12T19:55:40.487Z,14.98
2023-03-12T19:58:08.395Z,12.57
2023-03-12T20:00:35.398Z,17.65
2023-03-12T20:03:02.550Z,11.38
2023-03-12T20:05:29.715Z,11.93
2023-03-12T20:07:56.638Z,14.52
2023-03-12T20:10:23.805Z,14.02
2023-03-12T20:12:50.730Z,17.13
2023-03-12T20:15:18.328Z,13.55
2023-03-12T20:17:45.345Z,11.18
2023-03-12T20:20:12.486Z,22.92
2023-03-12T20:22:39.539Z,14.10
2023-03-12T20:25:07.123Z,18.50
2023-03-12T20:27:34.372Z,14.68
2023-03-12T20:30:03.523Z,11.80
2023-03-12T20:32:30.862Z,14.25
2023-03-12T20:34:57.849Z,15.07
2023-03-12T20:37:24.798Z,15.35
2023-03-12T20:39:52.574Z,17.92
2023-03-12T20:42:19.425Z,17.95
2023-03-12T20:44:46.402Z,14.48
2023-03-12T20:47:13.315Z,14.02
2023-03-12T20:49:40.262Z,20.25
2023-03-12T20:52:07.260Z,25.30
2023-03-12T20:54:34.166Z,16.70
2023-03-12T20:57:01.118Z,13.75
2023-03-12T20:59:28.019Z,21.05
2023-03-12T21:01:55.345Z,13.52
2023-03-12T21:04:22.286Z,15.40
2023-03-12T21:06:51.706Z,22.45
2023-03-12T21:09:18.794Z,20.25
2023-03-12T21:11:45.726Z,17.27
2023-03-12T21:14:12.675Z,17.92
2023-03-12T21:16:39.635Z,15.30
2023-03-12T21:19:06.700Z,14.77
2023-03-12T21:21:36.287Z,19.05
2023-03-12T21:24:03.347Z,20.42
2023-03-12T21:26:30.327Z,20.25
2023-03-12T21:28:57.241Z,19.65
2023-03-12T21:31:26.644Z,16.17
2023-03-12T21:33:59.246Z,20.98
2023-03-12T21:36:26.505Z,19.48
2023-03-12T21:38:53.425Z,20.67
2023-03-12T21:41:21.437Z,17.15
2023-03-12T21:43:48.593Z,13.77
2023-03-12T21:46:18.828Z,17.67
2023-03-12T21:48:47.798Z,20.83
2023-03-12T21:51:16.472Z,19.27
2023-03-12T21:53:44.513Z,26.80
2023-03-12T21:56:12.086Z,18.13
2023-03-12T21:58:39.126Z,15.35
2023-03-12T22:01:15.357Z,25.42
2023-03-12T22:03:44.599Z,22.40
2023-03-12T22:06:12.703Z,19.80
2023-03-12T22:08:40.210Z,13.75
2023-03-12T22:11:08.316Z,15.13
2023-03-12T22:13:35.757Z,22.38
2023-03-12T22:16:06.809Z,18.23
2023-03-12T22:18:37.122Z,19.95
2023-03-12T22:21:05.368Z,16.50
2023-03-12T22:23:33.565Z,15.48
2023-03-12T22:26:07.440Z,16.02
2023-03-12T22:31:04.348Z,16.45
2023-03-12T22:33:31.627Z,20.77
2023-03-12T22:35:58.986Z,15.00
2023-03-12T22:38:26.052Z,17.10
2023-03-12T22:40:55.502Z,12.85
2023-03-12T22:43:24.826Z,17.77
2023-03-12T22:45:55.055Z,17.52
2023-03-12T22:48:21.994Z,15.10
2023-03-12T22:50:55.370Z,13.35
2023-03-12T22:53:22.966Z,19.65
2023-03-12T22:55:59.977Z,16.90
2023-03-12T22:58:27.692Z,11.50
2023-03-12T23:01:02.927Z,12.50
2023-03-12T23:03:31.232Z,14.43
2023-03-12T23:05:58.906Z,16.38
2023-03-12T23:08:26.735Z,23.73
2023-03-12T23:10:56.733Z,12.85
2023-03-12T23:13:25.068Z,17.08
2023-03-12T23:15:52.073Z,14.23
2023-03-12T23:18:19.798Z,13.93
2023-03-12T23:20:47.104Z,11.48
2023-03-12T23:23:16.756Z,12.35
2023-03-12T23:25:53.166Z,12.40
2023-03-12T23:28:20.181Z,20.27
2023-03-12T23:31:02.203Z,15.10
2023-03-12T23:33:30.018Z,16.60
2023-03-12T23:36:00.360Z,13.57
2023-03-12T23:38:28.587Z,14.80
2023-03-12T23:41:13.886Z,15.73
2023-03-12T23:43:41.022Z,17.58
2023-03-12T23:46:09.606Z,17.23
2023-03-12T23:48:37.948Z,15.60
2023-03-12T23:51:05.091Z,13.20
2023-03-12T23:53:32.800Z,14.38
2023-03-12T23:56:01.619Z,13.18
2023-03-12T23:58:29.213Z,18.83
